Hlavní strana
METAR-TAF:

METAR-TAF

Letiště :

Aigen im Ennstal, Rakousko

zeměpisná šířka: 47-32N, zeměpisná délka: 014-08E, výška: 638 m

METAR: chybějící

Čas: 13:01 (11:01 UTC)

Předpověď počasí

Zpráva byla vytvořena před 2 hodinami a 46 minutami, v 08:15 UTC
Předpověď platná od 20 v 09 UTC do 20 v 18 UTC
vítr z různých směrů 3 kt
Viditelnost 10 km a více
Skoro jasno ve výšce 6000 ft
Dočasný
od 20 v 10 UTC do 20 v 18 UTC
Východoseverovýchodní vítr 7 kt
Skoro jasno ve výšce 6000 ft
Polojasno ve výšce 8000 ft
Pravděpodobnost 30% :
Dočasný
od 20 v 13 UTC do 20 v 18 UTC
Polojasno ve výšce 6000 ft
Skoro jasno ve výšce 6000 ft, Cumulonimbus.
dešťové přeháňky

TAF: LOXA 200815Z 2009/2018 VRB03KT 9999 FEW060 TEMPO 2010/2018 06007KT FEW060 SCT080 PROB30 TEMPO 2013/2018 SHRA SCT060 FEW060CB

Stav a předpovědi počasí z více než 4 000 letišť (zprávy METAR a TAF).

Červené a žluté tečky na mapě představují dostupné meteorologické stanice.

Když kurzor umístíte na tečku, zobrazí se název stanice.

Pak kliknutím zobrazíte stav a předpověď počasí.

Chcete-li změnit mapu, kliknutím na zelené tlačítko se znaménkem +mapu přiblížíte, kliknutím na zelené tlačítko se znaménkem – mapu oddálíte a kliknutím na zelené šipky přejdete na sousední mapy.


METAR-TAF: